sensor_id;sensor_type;location;lat;lon;timestamp;P1;durP1;ratioP1;P2;durP2;ratioP2
41799;SDS011;27468;47.460;19.034;2023-12-20T00:00:20;6.63;;;2.93;;
41799;SDS011;27468;47.460;19.034;2023-12-20T00:02:45;2.97;;;2.73;;
41799;SDS011;27468;47.460;19.034;2023-12-20T00:05:12;5.50;;;4.03;;
41799;SDS011;27468;47.460;19.034;2023-12-20T00:07:38;3.97;;;2.73;;
41799;SDS011;27468;47.460;19.034;2023-12-20T00:10:04;4.50;;;2.70;;
41799;SDS011;27468;47.460;19.034;2023-12-20T00:12:29;2.13;;;2.00;;
41799;SDS011;27468;47.460;19.034;2023-12-20T00:14:54;1.37;;;1.27;;
41799;SDS011;27468;47.460;19.034;2023-12-20T00:17:20;3.60;;;2.10;;
41799;SDS011;27468;47.460;19.034;2023-12-20T00:19:45;3.37;;;3.07;;
41799;SDS011;27468;47.460;19.034;2023-12-20T00:22:10;3.70;;;3.30;;
41799;SDS011;27468;47.460;19.034;2023-12-20T00:24:36;4.27;;;3.20;;
41799;SDS011;27468;47.460;19.034;2023-12-20T00:27:01;2.70;;;2.50;;
41799;SDS011;27468;47.460;19.034;2023-12-20T00:29:27;1.73;;;1.63;;
41799;SDS011;27468;47.460;19.034;2023-12-20T00:31:52;3.20;;;2.03;;
41799;SDS011;27468;47.460;19.034;2023-12-20T00:34:18;3.27;;;3.07;;
41799;SDS011;27468;47.460;19.034;2023-12-20T00:36:43;2.80;;;2.40;;
41799;SDS011;27468;47.460;19.034;2023-12-20T00:39:08;2.40;;;2.27;;
41799;SDS011;27468;47.460;19.034;2023-12-20T00:41:33;6.37;;;2.97;;
41799;SDS011;27468;47.460;19.034;2023-12-20T00:43:59;3.33;;;2.67;;
41799;SDS011;27468;47.460;19.034;2023-12-20T00:46:24;5.00;;;3.23;;
41799;SDS011;27468;47.460;19.034;2023-12-20T00:48:50;7.50;;;3.37;;
41799;SDS011;27468;47.460;19.034;2023-12-20T00:51:15;3.17;;;2.97;;
41799;SDS011;27468;47.460;19.034;2023-12-20T00:53:40;3.50;;;3.20;;
41799;SDS011;27468;47.460;19.034;2023-12-20T00:56:05;6.57;;;3.67;;
41799;SDS011;27468;47.460;19.034;2023-12-20T00:58:31;7.40;;;4.27;;
41799;SDS011;27468;47.460;19.034;2023-12-20T01:00:57;3.73;;;3.43;;
41799;SDS011;27468;47.460;19.034;2023-12-20T01:03:23;3.80;;;2.77;;
41799;SDS011;27468;47.460;19.034;2023-12-20T01:05:48;11.80;;;7.23;;
41799;SDS011;27468;47.460;19.034;2023-12-20T01:08:14;2.23;;;1.83;;
41799;SDS011;27468;47.460;19.034;2023-12-20T01:10:39;4.87;;;2.80;;
41799;SDS011;27468;47.460;19.034;2023-12-20T01:13:05;2.83;;;2.53;;
41799;SDS011;27468;47.460;19.034;2023-12-20T01:15:30;6.03;;;2.63;;
41799;SDS011;27468;47.460;19.034;2023-12-20T01:17:55;4.23;;;3.83;;
41799;SDS011;27468;47.460;19.034;2023-12-20T01:20:23;6.67;;;4.70;;
41799;SDS011;27468;47.460;19.034;2023-12-20T01:22:48;3.00;;;2.77;;
41799;SDS011;27468;47.460;19.034;2023-12-20T01:25:14;9.63;;;3.73;;
41799;SDS011;27468;47.460;19.034;2023-12-20T01:27:41;5.60;;;4.10;;
41799;SDS011;27468;47.460;19.034;2023-12-20T01:30:06;4.30;;;3.47;;
41799;SDS011;27468;47.460;19.034;2023-12-20T01:32:32;5.50;;;2.60;;
41799;SDS011;27468;47.460;19.034;2023-12-20T01:34:57;1.90;;;1.80;;
41799;SDS011;27468;47.460;19.034;2023-12-20T01:37:22;2.97;;;2.47;;
41799;SDS011;27468;47.460;19.034;2023-12-20T01:39:50;11.17;;;3.53;;
41799;SDS011;27468;47.460;19.034;2023-12-20T01:42:15;5.80;;;3.53;;
41799;SDS011;27468;47.460;19.034;2023-12-20T01:44:40;4.27;;;3.73;;
41799;SDS011;27468;47.460;19.034;2023-12-20T01:47:07;2.57;;;2.40;;
41799;SDS011;27468;47.460;19.034;2023-12-20T01:49:33;2.87;;;2.67;;
41799;SDS011;27468;47.460;19.034;2023-12-20T01:51:58;5.57;;;4.67;;
41799;SDS011;27468;47.460;19.034;2023-12-20T01:54:24;2.70;;;2.50;;
41799;SDS011;27468;47.460;19.034;2023-12-20T01:56:49;5.07;;;4.57;;
41799;SDS011;27468;47.460;19.034;2023-12-20T01:59:16;1.07;;;1.03;;
41799;SDS011;27468;47.460;19.034;2023-12-20T02:01:43;2.13;;;1.87;;
41799;SDS011;27468;47.460;19.034;2023-12-20T02:04:09;2.83;;;2.10;;
41799;SDS011;27468;47.460;19.034;2023-12-20T02:06:35;4.93;;;3.80;;
41799;SDS011;27468;47.460;19.034;2023-12-20T02:09:00;5.40;;;2.53;;
41799;SDS011;27468;47.460;19.034;2023-12-20T02:11:26;3.37;;;2.97;;
41799;SDS011;27468;47.460;19.034;2023-12-20T02:13:51;5.57;;;1.37;;
41799;SDS011;27468;47.460;19.034;2023-12-20T02:16:17;4.03;;;3.70;;
41799;SDS011;27468;47.460;19.034;2023-12-20T02:18:42;3.47;;;3.20;;
41799;SDS011;27468;47.460;19.034;2023-12-20T02:21:09;3.30;;;2.70;;
41799;SDS011;27468;47.460;19.034;2023-12-20T02:23:35;2.47;;;1.53;;
41799;SDS011;27468;47.460;19.034;2023-12-20T02:26:00;4.60;;;4.20;;
41799;SDS011;27468;47.460;19.034;2023-12-20T02:28:26;4.43;;;4.07;;
41799;SDS011;27468;47.460;19.034;2023-12-20T02:30:51;3.30;;;3.00;;
41799;SDS011;27468;47.460;19.034;2023-12-20T02:33:17;3.73;;;3.17;;
41799;SDS011;27468;47.460;19.034;2023-12-20T02:35:42;7.63;;;3.43;;
41799;SDS011;27468;47.460;19.034;2023-12-20T02:38:07;6.60;;;3.07;;
41799;SDS011;27468;47.460;19.034;2023-12-20T02:40:33;5.87;;;3.73;;
41799;SDS011;27468;47.460;19.034;2023-12-20T02:42:58;7.03;;;3.33;;
41799;SDS011;27468;47.460;19.034;2023-12-20T02:45:23;5.23;;;3.30;;
41799;SDS011;27468;47.460;19.034;2023-12-20T02:47:48;4.20;;;3.07;;
41799;SDS011;27468;47.460;19.034;2023-12-20T02:50:14;3.90;;;3.60;;
41799;SDS011;27468;47.460;19.034;2023-12-20T02:52:39;3.40;;;3.10;;
41799;SDS011;27468;47.460;19.034;2023-12-20T02:55:04;3.53;;;2.47;;
41799;SDS011;27468;47.460;19.034;2023-12-20T02:57:30;3.80;;;2.53;;
41799;SDS011;27468;47.460;19.034;2023-12-20T02:59:55;8.83;;;4.50;;
41799;SDS011;27468;47.460;19.034;2023-12-20T03:02:20;3.03;;;2.00;;
41799;SDS011;27468;47.460;19.034;2023-12-20T03:04:46;4.97;;;3.77;;
41799;SDS011;27468;47.460;19.034;2023-12-20T03:07:11;3.63;;;2.60;;
41799;SDS011;27468;47.460;19.034;2023-12-20T03:09:37;5.50;;;3.17;;
41799;SDS011;27468;47.460;19.034;2023-12-20T03:12:02;3.13;;;2.90;;
41799;SDS011;27468;47.460;19.034;2023-12-20T03:14:28;4.17;;;3.50;;
41799;SDS011;27468;47.460;19.034;2023-12-20T03:16:53;3.67;;;2.90;;
41799;SDS011;27468;47.460;19.034;2023-12-20T03:19:18;2.83;;;2.63;;
41799;SDS011;27468;47.460;19.034;2023-12-20T03:21:44;8.10;;;6.17;;
41799;SDS011;27468;47.460;19.034;2023-12-20T03:24:09;3.43;;;3.23;;
41799;SDS011;27468;47.460;19.034;2023-12-20T03:26:35;7.80;;;4.33;;
41799;SDS011;27468;47.460;19.034;2023-12-20T03:29:00;2.10;;;1.47;;
41799;SDS011;27468;47.460;19.034;2023-12-20T03:31:25;4.43;;;4.13;;
41799;SDS011;27468;47.460;19.034;2023-12-20T03:33:51;5.20;;;3.80;;
41799;SDS011;27468;47.460;19.034;2023-12-20T03:36:18;2.30;;;2.07;;
41799;SDS011;27468;47.460;19.034;2023-12-20T03:38:44;4.03;;;1.70;;
41799;SDS011;27468;47.460;19.034;2023-12-20T03:41:09;4.50;;;2.13;;
41799;SDS011;27468;47.460;19.034;2023-12-20T03:43:34;1.67;;;0.97;;
41799;SDS011;27468;47.460;19.034;2023-12-20T03:45:59;4.10;;;3.30;;
41799;SDS011;27468;47.460;19.034;2023-12-20T03:48:25;4.83;;;3.03;;
41799;SDS011;27468;47.460;19.034;2023-12-20T03:50:50;3.63;;;3.17;;
41799;SDS011;27468;47.460;19.034;2023-12-20T03:53:16;1.83;;;1.60;;
41799;SDS011;27468;47.460;19.034;2023-12-20T03:55:41;4.87;;;2.93;;
41799;SDS011;27468;47.460;19.034;2023-12-20T03:58:06;2.37;;;2.27;;
41799;SDS011;27468;47.460;19.034;2023-12-20T04:00:32;6.50;;;2.60;;
41799;SDS011;27468;47.460;19.034;2023-12-20T04:02:57;3.67;;;1.57;;
41799;SDS011;27468;47.460;19.034;2023-12-20T04:05:23;5.40;;;3.63;;
41799;SDS011;27468;47.460;19.034;2023-12-20T04:07:48;3.83;;;2.77;;
41799;SDS011;27468;47.460;19.034;2023-12-20T04:10:15;8.67;;;2.47;;
41799;SDS011;27468;47.460;19.034;2023-12-20T04:12:40;3.33;;;3.03;;
41799;SDS011;27468;47.460;19.034;2023-12-20T04:15:06;7.00;;;4.80;;
41799;SDS011;27468;47.460;19.034;2023-12-20T04:17:34;2.83;;;2.60;;
41799;SDS011;27468;47.460;19.034;2023-12-20T04:20:00;3.27;;;2.43;;
41799;SDS011;27468;47.460;19.034;2023-12-20T04:22:26;2.07;;;1.97;;
41799;SDS011;27468;47.460;19.034;2023-12-20T04:24:51;3.53;;;2.53;;
41799;SDS011;27468;47.460;19.034;2023-12-20T04:27:16;3.60;;;2.57;;
41799;SDS011;27468;47.460;19.034;2023-12-20T04:29:42;4.33;;;3.30;;
41799;SDS011;27468;47.460;19.034;2023-12-20T04:32:07;5.97;;;4.17;;
41799;SDS011;27468;47.460;19.034;2023-12-20T04:34:33;3.23;;;3.03;;
41799;SDS011;27468;47.460;19.034;2023-12-20T04:36:58;5.33;;;2.60;;
41799;SDS011;27468;47.460;19.034;2023-12-20T04:39:23;4.07;;;3.77;;
41799;SDS011;27468;47.460;19.034;2023-12-20T04:41:49;4.33;;;4.00;;
41799;SDS011;27468;47.460;19.034;2023-12-20T04:44:15;2.50;;;2.30;;
41799;SDS011;27468;47.460;19.034;2023-12-20T04:46:40;4.17;;;3.73;;
41799;SDS011;27468;47.460;19.034;2023-12-20T04:49:05;3.20;;;2.93;;
41799;SDS011;27468;47.460;19.034;2023-12-20T04:51:34;2.97;;;2.77;;
41799;SDS011;27468;47.460;19.034;2023-12-20T04:53:59;2.97;;;2.03;;
41799;SDS011;27468;47.460;19.034;2023-12-20T04:56:25;4.27;;;3.87;;
41799;SDS011;27468;47.460;19.034;2023-12-20T04:58:50;1.90;;;1.80;;
41799;SDS011;27468;47.460;19.034;2023-12-20T05:01:15;6.10;;;4.37;;
41799;SDS011;27468;47.460;19.034;2023-12-20T05:03:41;2.80;;;2.13;;
41799;SDS011;27468;47.460;19.034;2023-12-20T05:06:07;4.93;;;2.53;;
41799;SDS011;27468;47.460;19.034;2023-12-20T05:08:32;3.40;;;2.67;;
41799;SDS011;27468;47.460;19.034;2023-12-20T05:10:58;2.93;;;2.70;;
41799;SDS011;27468;47.460;19.034;2023-12-20T05:13:23;3.77;;;3.40;;
41799;SDS011;27468;47.460;19.034;2023-12-20T05:15:48;3.97;;;3.77;;
41799;SDS011;27468;47.460;19.034;2023-12-20T05:18:14;5.63;;;4.03;;
41799;SDS011;27468;47.460;19.034;2023-12-20T05:20:39;0.77;;;0.77;;
41799;SDS011;27468;47.460;19.034;2023-12-20T05:23:05;2.70;;;2.50;;
41799;SDS011;27468;47.460;19.034;2023-12-20T05:25:31;3.03;;;2.57;;
41799;SDS011;27468;47.460;19.034;2023-12-20T05:27:56;5.80;;;4.07;;
41799;SDS011;27468;47.460;19.034;2023-12-20T05:30:22;4.83;;;2.83;;
41799;SDS011;27468;47.460;19.034;2023-12-20T05:32:47;2.87;;;2.67;;
41799;SDS011;27468;47.460;19.034;2023-12-20T05:35:13;3.63;;;3.17;;
41799;SDS011;27468;47.460;19.034;2023-12-20T05:37:38;1.20;;;1.20;;
41799;SDS011;27468;47.460;19.034;2023-12-20T05:40:03;2.10;;;1.87;;
41799;SDS011;27468;47.460;19.034;2023-12-20T05:42:29;3.60;;;2.13;;
41799;SDS011;27468;47.460;19.034;2023-12-20T05:44:55;3.77;;;1.97;;
41799;SDS011;27468;47.460;19.034;2023-12-20T05:47:20;1.80;;;1.70;;
41799;SDS011;27468;47.460;19.034;2023-12-20T05:49:45;2.57;;;1.67;;
41799;SDS011;27468;47.460;19.034;2023-12-20T05:52:10;2.07;;;1.97;;
41799;SDS011;27468;47.460;19.034;2023-12-20T05:54:36;4.90;;;2.73;;
41799;SDS011;27468;47.460;19.034;2023-12-20T05:57:01;3.70;;;3.40;;
41799;SDS011;27468;47.460;19.034;2023-12-20T05:59:27;7.43;;;2.90;;
41799;SDS011;27468;47.460;19.034;2023-12-20T06:01:52;3.83;;;3.40;;
41799;SDS011;27468;47.460;19.034;2023-12-20T06:04:17;2.93;;;2.73;;
41799;SDS011;27468;47.460;19.034;2023-12-20T06:06:43;6.57;;;4.73;;
41799;SDS011;27468;47.460;19.034;2023-12-20T06:09:08;4.73;;;2.40;;
41799;SDS011;27468;47.460;19.034;2023-12-20T06:11:34;6.77;;;3.20;;
41799;SDS011;27468;47.460;19.034;2023-12-20T06:13:59;6.67;;;3.67;;
41799;SDS011;27468;47.460;19.034;2023-12-20T06:16:25;4.53;;;3.50;;
41799;SDS011;27468;47.460;19.034;2023-12-20T06:18:50;4.83;;;4.30;;
41799;SDS011;27468;47.460;19.034;2023-12-20T06:21:15;4.57;;;2.23;;
41799;SDS011;27468;47.460;19.034;2023-12-20T06:23:41;5.00;;;3.73;;
41799;SDS011;27468;47.460;19.034;2023-12-20T06:26:06;6.07;;;3.37;;
41799;SDS011;27468;47.460;19.034;2023-12-20T06:28:31;3.00;;;2.80;;
41799;SDS011;27468;47.460;19.034;2023-12-20T06:30:57;6.40;;;4.03;;
41799;SDS011;27468;47.460;19.034;2023-12-20T06:33:22;9.37;;;5.17;;
41799;SDS011;27468;47.460;19.034;2023-12-20T06:35:48;8.03;;;4.10;;
41799;SDS011;27468;47.460;19.034;2023-12-20T06:38:14;5.90;;;3.70;;
41799;SDS011;27468;47.460;19.034;2023-12-20T06:40:39;6.23;;;4.70;;
41799;SDS011;27468;47.460;19.034;2023-12-20T06:44:22;1.87;;;1.77;;
41799;SDS011;27468;47.460;19.034;2023-12-20T06:46:47;4.37;;;3.60;;
41799;SDS011;27468;47.460;19.034;2023-12-20T06:49:12;3.07;;;2.83;;
41799;SDS011;27468;47.460;19.034;2023-12-20T06:51:38;3.07;;;2.67;;
41799;SDS011;27468;47.460;19.034;2023-12-20T06:54:03;5.07;;;2.63;;
41799;SDS011;27468;47.460;19.034;2023-12-20T06:56:28;3.83;;;3.53;;
41799;SDS011;27468;47.460;19.034;2023-12-20T06:58:54;2.20;;;1.90;;
41799;SDS011;27468;47.460;19.034;2023-12-20T07:01:19;5.27;;;3.57;;
41799;SDS011;27468;47.460;19.034;2023-12-20T07:03:45;3.83;;;2.83;;
41799;SDS011;27468;47.460;19.034;2023-12-20T07:06:11;2.40;;;2.30;;
41799;SDS011;27468;47.460;19.034;2023-12-20T07:08:36;6.63;;;3.27;;
41799;SDS011;27468;47.460;19.034;2023-12-20T07:11:01;4.87;;;3.53;;
41799;SDS011;27468;47.460;19.034;2023-12-20T07:13:27;2.10;;;1.87;;
41799;SDS011;27468;47.460;19.034;2023-12-20T07:15:52;3.00;;;1.93;;
41799;SDS011;27468;47.460;19.034;2023-12-20T07:18:18;4.20;;;3.67;;
41799;SDS011;27468;47.460;19.034;2023-12-20T07:20:43;4.47;;;3.50;;
41799;SDS011;27468;47.460;19.034;2023-12-20T07:23:08;3.60;;;3.30;;
41799;SDS011;27468;47.460;19.034;2023-12-20T07:25:34;2.33;;;2.00;;
41799;SDS011;27468;47.460;19.034;2023-12-20T07:27:59;4.30;;;2.13;;
41799;SDS011;27468;47.460;19.034;2023-12-20T07:30:25;8.13;;;2.80;;
41799;SDS011;27468;47.460;19.034;2023-12-20T07:32:50;6.13;;;5.00;;
41799;SDS011;27468;47.460;19.034;2023-12-20T07:35:15;5.30;;;3.20;;
41799;SDS011;27468;47.460;19.034;2023-12-20T07:37:41;6.23;;;5.23;;
41799;SDS011;27468;47.460;19.034;2023-12-20T07:40:06;6.00;;;2.53;;
41799;SDS011;27468;47.460;19.034;2023-12-20T07:42:32;1.97;;;1.90;;
41799;SDS011;27468;47.460;19.034;2023-12-20T07:44:58;3.60;;;3.33;;
41799;SDS011;27468;47.460;19.034;2023-12-20T07:47:23;3.50;;;3.23;;
41799;SDS011;27468;47.460;19.034;2023-12-20T07:49:50;7.17;;;4.17;;
41799;SDS011;27468;47.460;19.034;2023-12-20T07:52:17;4.77;;;4.37;;
41799;SDS011;27468;47.460;19.034;2023-12-20T07:54:43;4.80;;;4.27;;
41799;SDS011;27468;47.460;19.034;2023-12-20T07:57:09;4.63;;;4.30;;
41799;SDS011;27468;47.460;19.034;2023-12-20T07:59:35;9.00;;;4.10;;
41799;SDS011;27468;47.460;19.034;2023-12-20T08:02:01;6.53;;;3.27;;
41799;SDS011;27468;47.460;19.034;2023-12-20T08:04:26;10.10;;;6.07;;
41799;SDS011;27468;47.460;19.034;2023-12-20T08:06:52;6.50;;;4.90;;
41799;SDS011;27468;47.460;19.034;2023-12-20T08:09:18;5.00;;;3.27;;
41799;SDS011;27468;47.460;19.034;2023-12-20T08:11:45;6.13;;;3.50;;
41799;SDS011;27468;47.460;19.034;2023-12-20T08:14:10;6.17;;;3.67;;
41799;SDS011;27468;47.460;19.034;2023-12-20T08:16:37;14.27;;;5.13;;
41799;SDS011;27468;47.460;19.034;2023-12-20T08:19:02;6.37;;;5.40;;
41799;SDS011;27468;47.460;19.034;2023-12-20T08:21:27;4.47;;;2.87;;
41799;SDS011;27468;47.460;19.034;2023-12-20T08:23:53;6.03;;;3.73;;
41799;SDS011;27468;47.460;19.034;2023-12-20T08:26:18;4.63;;;3.70;;
41799;SDS011;27468;47.460;19.034;2023-12-20T08:28:46;6.77;;;4.07;;
41799;SDS011;27468;47.460;19.034;2023-12-20T08:31:14;4.30;;;2.73;;
41799;SDS011;27468;47.460;19.034;2023-12-20T08:33:41;2.30;;;2.10;;
41799;SDS011;27468;47.460;19.034;2023-12-20T08:36:08;4.67;;;4.03;;
41799;SDS011;27468;47.460;19.034;2023-12-20T08:38:33;5.47;;;3.87;;
41799;SDS011;27468;47.460;19.034;2023-12-20T08:40:59;10.57;;;3.80;;
41799;SDS011;27468;47.460;19.034;2023-12-20T08:43:24;8.83;;;5.23;;
41799;SDS011;27468;47.460;19.034;2023-12-20T08:45:49;10.43;;;5.27;;
41799;SDS011;27468;47.460;19.034;2023-12-20T08:48:15;3.83;;;3.23;;
41799;SDS011;27468;47.460;19.034;2023-12-20T08:50:40;6.07;;;4.30;;
41799;SDS011;27468;47.460;19.034;2023-12-20T08:53:06;10.80;;;3.77;;
41799;SDS011;27468;47.460;19.034;2023-12-20T08:55:31;5.27;;;4.73;;
41799;SDS011;27468;47.460;19.034;2023-12-20T08:57:57;5.60;;;2.80;;
41799;SDS011;27468;47.460;19.034;2023-12-20T09:00:22;5.17;;;3.30;;
41799;SDS011;27468;47.460;19.034;2023-12-20T09:02:50;7.67;;;4.53;;
41799;SDS011;27468;47.460;19.034;2023-12-20T09:05:16;4.27;;;3.87;;
41799;SDS011;27468;47.460;19.034;2023-12-20T09:07:41;8.93;;;6.33;;
41799;SDS011;27468;47.460;19.034;2023-12-20T09:10:06;8.70;;;5.03;;
41799;SDS011;27468;47.460;19.034;2023-12-20T09:12:32;8.77;;;5.10;;
41799;SDS011;27468;47.460;19.034;2023-12-20T09:14:57;5.50;;;4.70;;
41799;SDS011;27468;47.460;19.034;2023-12-20T09:17:23;4.80;;;4.30;;
41799;SDS011;27468;47.460;19.034;2023-12-20T09:19:48;7.60;;;4.30;;
41799;SDS011;27468;47.460;19.034;2023-12-20T09:22:14;4.47;;;3.57;;
41799;SDS011;27468;47.460;19.034;2023-12-20T09:24:39;4.93;;;4.10;;
41799;SDS011;27468;47.460;19.034;2023-12-20T09:27:06;7.40;;;4.40;;
41799;SDS011;27468;47.460;19.034;2023-12-20T09:29:31;5.60;;;4.13;;
41799;SDS011;27468;47.460;19.034;2023-12-20T09:31:57;7.60;;;4.17;;
41799;SDS011;27468;47.460;19.034;2023-12-20T09:34:23;5.70;;;3.17;;
41799;SDS011;27468;47.460;19.034;2023-12-20T09:36:48;9.17;;;3.90;;
41799;SDS011;27468;47.460;19.034;2023-12-20T09:39:14;8.80;;;4.60;;
41799;SDS011;27468;47.460;19.034;2023-12-20T09:41:42;9.80;;;5.27;;
41799;SDS011;27468;47.460;19.034;2023-12-20T09:44:08;5.00;;;4.07;;
41799;SDS011;27468;47.460;19.034;2023-12-20T09:46:39;8.43;;;5.10;;
41799;SDS011;27468;47.460;19.034;2023-12-20T09:49:08;6.72;;;4.20;;
41799;SDS011;27468;47.460;19.034;2023-12-20T09:53:11;5.22;;;3.65;;
41799;SDS011;27468;47.460;19.034;2023-12-20T09:55:41;17.15;;;6.18;;
41799;SDS011;27468;47.460;19.034;2023-12-20T09:58:06;6.90;;;4.47;;
41799;SDS011;27468;47.460;19.034;2023-12-20T10:00:33;8.93;;;3.25;;
41799;SDS011;27468;47.460;19.034;2023-12-20T10:03:00;9.53;;;6.77;;
41799;SDS011;27468;47.460;19.034;2023-12-20T10:05:27;6.85;;;4.72;;
41799;SDS011;27468;47.460;19.034;2023-12-20T10:07:56;5.77;;;4.17;;
41799;SDS011;27468;47.460;19.034;2023-12-20T10:10:22;7.27;;;5.67;;
41799;SDS011;27468;47.460;19.034;2023-12-20T10:13:06;8.00;;;4.93;;
41799;SDS011;27468;47.460;19.034;2023-12-20T10:15:33;4.37;;;3.07;;
41799;SDS011;27468;47.460;19.034;2023-12-20T10:18:00;5.57;;;4.13;;
41799;SDS011;27468;47.460;19.034;2023-12-20T10:20:26;12.80;;;5.78;;
41799;SDS011;27468;47.460;19.034;2023-12-20T10:22:53;4.87;;;3.80;;
41799;SDS011;27468;47.460;19.034;2023-12-20T10:25:20;9.33;;;5.87;;
41799;SDS011;27468;47.460;19.034;2023-12-20T10:27:46;7.57;;;4.33;;
41799;SDS011;27468;47.460;19.034;2023-12-20T10:30:12;4.87;;;4.37;;
41799;SDS011;27468;47.460;19.034;2023-12-20T10:32:38;8.60;;;5.37;;
41799;SDS011;27468;47.460;19.034;2023-12-20T10:35:03;6.80;;;4.17;;
41799;SDS011;27468;47.460;19.034;2023-12-20T10:37:29;8.40;;;4.43;;
41799;SDS011;27468;47.460;19.034;2023-12-20T10:39:54;7.73;;;3.73;;
41799;SDS011;27468;47.460;19.034;2023-12-20T10:42:24;8.33;;;5.67;;
41799;SDS011;27468;47.460;19.034;2023-12-20T10:44:51;9.33;;;3.90;;
41799;SDS011;27468;47.460;19.034;2023-12-20T10:47:18;4.97;;;3.67;;
41799;SDS011;27468;47.460;19.034;2023-12-20T10:49:44;5.38;;;4.70;;
41799;SDS011;27468;47.460;19.034;2023-12-20T10:52:11;12.53;;;6.40;;
41799;SDS011;27468;47.460;19.034;2023-12-20T10:54:38;10.93;;;6.17;;
41799;SDS011;27468;47.460;19.034;2023-12-20T10:57:07;8.23;;;4.57;;
41799;SDS011;27468;47.460;19.034;2023-12-20T10:59:33;11.60;;;5.70;;
41799;SDS011;27468;47.460;19.034;2023-12-20T11:02:05;6.57;;;5.57;;
41799;SDS011;27468;47.460;19.034;2023-12-20T11:04:33;8.90;;;5.38;;
41799;SDS011;27468;47.460;19.034;2023-12-20T11:07:15;11.25;;;5.07;;
41799;SDS011;27468;47.460;19.034;2023-12-20T11:09:58;11.30;;;8.02;;
41799;SDS011;27468;47.460;19.034;2023-12-20T11:12:32;11.47;;;6.93;;
41799;SDS011;27468;47.460;19.034;2023-12-20T11:15:06;7.35;;;6.70;;
41799;SDS011;27468;47.460;19.034;2023-12-20T11:17:32;6.70;;;6.13;;
41799;SDS011;27468;47.460;19.034;2023-12-20T11:22:25;7.30;;;5.25;;
41799;SDS011;27468;47.460;19.034;2023-12-20T11:24:51;15.83;;;5.57;;
41799;SDS011;27468;47.460;19.034;2023-12-20T11:27:18;6.60;;;5.93;;
41799;SDS011;27468;47.460;19.034;2023-12-20T11:29:51;4.13;;;3.73;;
41799;SDS011;27468;47.460;19.034;2023-12-20T11:34:50;5.07;;;4.20;;
41799;SDS011;27468;47.460;19.034;2023-12-20T11:37:16;10.23;;;5.87;;
41799;SDS011;27468;47.460;19.034;2023-12-20T11:39:42;6.22;;;4.68;;
41799;SDS011;27468;47.460;19.034;2023-12-20T11:42:08;12.57;;;6.85;;
41799;SDS011;27468;47.460;19.034;2023-12-20T11:44:36;4.88;;;4.43;;
41799;SDS011;27468;47.460;19.034;2023-12-20T11:47:02;9.68;;;6.60;;
41799;SDS011;27468;47.460;19.034;2023-12-20T11:49:27;8.38;;;6.03;;
41799;SDS011;27468;47.460;19.034;2023-12-20T11:51:55;7.15;;;5.88;;
41799;SDS011;27468;47.460;19.034;2023-12-20T11:54:21;9.20;;;5.37;;
41799;SDS011;27468;47.460;19.034;2023-12-20T11:56:46;11.82;;;7.05;;
41799;SDS011;27468;47.460;19.034;2023-12-20T11:59:12;16.77;;;8.20;;
41799;SDS011;27468;47.460;19.034;2023-12-20T12:01:37;7.50;;;5.50;;
41799;SDS011;27468;47.460;19.034;2023-12-20T12:04:03;15.75;;;5.82;;
41799;SDS011;27468;47.460;19.034;2023-12-20T12:06:29;12.77;;;7.30;;
41799;SDS011;27468;47.460;19.034;2023-12-20T12:08:55;13.00;;;5.65;;
41799;SDS011;27468;47.460;19.034;2023-12-20T12:11:20;6.97;;;3.38;;
41799;SDS011;27468;47.460;19.034;2023-12-20T12:13:47;8.18;;;4.80;;
41799;SDS011;27468;47.460;19.034;2023-12-20T12:16:12;2.13;;;1.52;;
41799;SDS011;27468;47.460;19.034;2023-12-20T12:18:41;2.05;;;1.95;;
41799;SDS011;27468;47.460;19.034;2023-12-20T12:21:07;0.35;;;0.32;;
41799;SDS011;27468;47.460;19.034;2023-12-20T12:23:32;2.30;;;2.10;;
41799;SDS011;27468;47.460;19.034;2023-12-20T12:25:57;3.78;;;2.40;;
41799;SDS011;27468;47.460;19.034;2023-12-20T12:28:25;1.65;;;1.45;;
41799;SDS011;27468;47.460;19.034;2023-12-20T12:30:56;1.65;;;0.73;;
41799;SDS011;27468;47.460;19.034;2023-12-20T12:33:24;0.77;;;0.70;;
41799;SDS011;27468;47.460;19.034;2023-12-20T12:35:50;2.58;;;0.70;;
41799;SDS011;27468;47.460;19.034;2023-12-20T12:38:16;2.08;;;1.27;;
41799;SDS011;27468;47.460;19.034;2023-12-20T12:40:42;1.33;;;1.30;;
41799;SDS011;27468;47.460;19.034;2023-12-20T12:43:08;1.05;;;1.05;;
41799;SDS011;27468;47.460;19.034;2023-12-20T12:45:34;0.65;;;0.45;;
41799;SDS011;27468;47.460;19.034;2023-12-20T12:47:59;0.10;;;0.10;;
41799;SDS011;27468;47.460;19.034;2023-12-20T12:50:24;1.27;;;0.80;;
41799;SDS011;27468;47.460;19.034;2023-12-20T12:52:49;1.48;;;0.75;;
41799;SDS011;27468;47.460;19.034;2023-12-20T12:55:15;0.55;;;0.45;;
41799;SDS011;27468;47.460;19.034;2023-12-20T12:57:40;0.32;;;0.32;;
41799;SDS011;27468;47.460;19.034;2023-12-20T13:00:06;1.70;;;1.42;;
41799;SDS011;27468;47.460;19.034;2023-12-20T13:02:34;0.80;;;0.25;;
41799;SDS011;27468;47.460;19.034;2023-12-20T13:04:59;0.55;;;0.50;;
41799;SDS011;27468;47.460;19.034;2023-12-20T13:07:26;0.60;;;0.60;;
41799;SDS011;27468;47.460;19.034;2023-12-20T13:09:51;0.88;;;0.25;;
41799;SDS011;27468;47.460;19.034;2023-12-20T13:12:17;0.88;;;0.88;;
41799;SDS011;27468;47.460;19.034;2023-12-20T13:14:42;1.25;;;1.17;;
41799;SDS011;27468;47.460;19.034;2023-12-20T13:17:07;1.02;;;0.60;;
41799;SDS011;27468;47.460;19.034;2023-12-20T13:19:33;1.13;;;0.85;;
41799;SDS011;27468;47.460;19.034;2023-12-20T13:21:58;0.43;;;0.32;;
41799;SDS011;27468;47.460;19.034;2023-12-20T13:24:24;0.82;;;0.50;;
41799;SDS011;27468;47.460;19.034;2023-12-20T13:26:49;0.10;;;0.10;;
41799;SDS011;27468;47.460;19.034;2023-12-20T13:29:14;0.40;;;0.40;;
41799;SDS011;27468;47.460;19.034;2023-12-20T13:31:39;0.65;;;0.65;;
41799;SDS011;27468;47.460;19.034;2023-12-20T13:34:05;0.90;;;0.70;;
41799;SDS011;27468;47.460;19.034;2023-12-20T13:36:31;0.80;;;0.80;;
41799;SDS011;27468;47.460;19.034;2023-12-20T13:38:57;0.82;;;0.70;;
41799;SDS011;27468;47.460;19.034;2023-12-20T13:41:22;0.68;;;0.68;;
41799;SDS011;27468;47.460;19.034;2023-12-20T13:43:48;2.17;;;0.63;;
41799;SDS011;27468;47.460;19.034;2023-12-20T13:46:13;0.68;;;0.68;;
41799;SDS011;27468;47.460;19.034;2023-12-20T13:48:39;1.35;;;1.27;;
41799;SDS011;27468;47.460;19.034;2023-12-20T13:51:04;1.20;;;0.93;;
41799;SDS011;27468;47.460;19.034;2023-12-20T13:53:30;1.05;;;1.05;;
41799;SDS011;27468;47.460;19.034;2023-12-20T13:55:56;0.60;;;0.60;;
41799;SDS011;27468;47.460;19.034;2023-12-20T13:58:22;0.80;;;0.80;;
41799;SDS011;27468;47.460;19.034;2023-12-20T14:00:48;2.97;;;1.42;;
41799;SDS011;27468;47.460;19.034;2023-12-20T14:03:13;1.40;;;0.80;;
41799;SDS011;27468;47.460;19.034;2023-12-20T14:05:38;1.38;;;1.05;;
41799;SDS011;27468;47.460;19.034;2023-12-20T14:08:04;1.33;;;0.82;;
41799;SDS011;27468;47.460;19.034;2023-12-20T14:10:29;0.68;;;0.45;;
41799;SDS011;27468;47.460;19.034;2023-12-20T14:12:55;0.63;;;0.63;;
41799;SDS011;27468;47.460;19.034;2023-12-20T14:15:20;2.42;;;1.25;;
41799;SDS011;27468;47.460;19.034;2023-12-20T14:17:46;0.50;;;0.50;;
41799;SDS011;27468;47.460;19.034;2023-12-20T14:20:11;1.65;;;1.10;;
41799;SDS011;27468;47.460;19.034;2023-12-20T14:22:40;1.25;;;1.15;;
41799;SDS011;27468;47.460;19.034;2023-12-20T14:25:12;0.50;;;0.47;;
41799;SDS011;27468;47.460;19.034;2023-12-20T14:27:39;0.82;;;0.70;;
41799;SDS011;27468;47.460;19.034;2023-12-20T14:30:05;0.95;;;0.88;;
41799;SDS011;27468;47.460;19.034;2023-12-20T14:32:31;1.55;;;1.45;;